Terminal Aerodrome Forecast
Issued by NWS

Home | Current Version | Previous Version | Text Only | Print | Product List | Glossary Off
Versions: 1 2 3 4 5 6 7 8 9 10 11 12 13 14

000
FTUS45 KGGW 150800 AAA
TAFSDY
TAF AMD
KSDY 150838Z 1509/1606 22014KT P6SM SCT130
     FM151200 30013KT P6SM BKN120
     FM152100 35018KT P6SM OVC040
     FM160000 35015KT P6SM -SHRA OVC035
      AMD LTD TO CLD VIS AND WIND=

USA.gov is the U.S. government's official web portal to all federal, state and local government web resources and services.